Time;durP1;ratioP1;P1;durP2;ratioP2;P2;SDS_P1;SDS_P2;PMS_P1;PMS_P2;Temp;Humidity;BMP_temperature;BMP_pressure;BME280_temperature;BME280_humidity;BME280_pressure;Samples;Min_cycle;Max_cycle;Signal;HPM_P1;HPM_P2
2022/09/01 00:01:04;;;;;;;2.65;1.30;;;;;;;;;;5049535;28;20629;-67
2022/09/01 00:03:30;;;;;;;2.50;1.20;;;;;;;;;;5049680;28;20202;-67
2022/09/01 00:05:55;;;;;;;3.42;1.15;;;;;;;;;;5050150;28;20218;-67
2022/09/01 00:08:22;;;;;;;2.70;1.27;;;;;;;;;;5049697;28;20360;-67
2022/09/01 00:10:47;;;;;;;3.65;1.30;;;;;;;;;;5049454;28;20219;-67
2022/09/01 00:13:12;;;;;;;3.25;1.25;;;;;;;;;;5054698;28;20204;-67
2022/09/01 00:15:38;;;;;;;4.07;1.52;;;;;;;;;;5070159;28;20269;-67
2022/09/01 00:18:03;;;;;;;3.95;1.40;;;;;;;;;;5052874;28;20628;-67
2022/09/01 00:20:28;;;;;;;5.07;1.27;;;;;;;;;;5050149;28;20841;-67
2022/09/01 00:22:54;;;;;;;3.78;1.27;;;;;;;;;;5048672;28;20215;-67
2022/09/01 00:25:19;;;;;;;4.72;1.50;;;;;;;;;;5049024;28;20203;-67
2022/09/01 00:27:46;;;;;;;4.35;1.40;;;;;;;;;;5050020;28;20238;-67
2022/09/01 00:30:11;;;;;;;2.38;1.10;;;;;;;;;;5048357;28;20670;-67
2022/09/01 00:32:36;;;;;;;5.32;1.50;;;;;;;;;;5049255;28;20233;-67
2022/09/01 00:35:02;;;;;;;5.03;1.35;;;;;;;;;;5051000;28;20255;-67
2022/09/01 00:37:28;;;;;;;4.43;1.40;;;;;;;;;;5053724;28;20666;-67
2022/09/01 00:39:53;;;;;;;4.50;1.40;;;;;;;;;;5053254;28;20591;-67
2022/09/01 00:42:18;;;;;;;4.47;1.38;;;;;;;;;;5053313;28;20214;-67
2022/09/01 00:44:44;;;;;;;5.75;1.60;;;;;;;;;;5053675;28;20234;-67
2022/09/01 00:47:09;;;;;;;3.72;1.80;;;;;;;;;;5052501;28;20277;-67
2022/09/01 00:49:37;;;;;;;5.65;1.60;;;;;;;;;;5053580;28;20302;-67
2022/09/01 00:52:04;;;;;;;2.20;1.38;;;;;;;;;;5052654;28;20203;-67
2022/09/01 00:54:31;;;;;;;2.97;1.38;;;;;;;;;;5053636;28;20264;-67
2022/09/01 00:56:56;;;;;;;5.05;1.65;;;;;;;;;;5053456;28;20689;-67
2022/09/01 00:59:21;;;;;;;2.97;1.40;;;;;;;;;;5052407;28;20288;-67
2022/09/01 01:01:47;;;;;;;5.25;1.52;;;;;;;;;;5052071;28;20235;-67
2022/09/01 01:04:18;;;;;;;3.50;1.30;;;;;;;;;;5051793;28;20219;-67
2022/09/01 01:06:48;;;;;;;2.90;1.58;;;;;;;;;;5052476;28;20230;-67
2022/09/01 01:09:14;;;;;;;5.18;1.50;;;;;;;;;;5051591;28;20218;-66
2022/09/01 01:11:39;;;;;;;3.75;1.50;;;;;;;;;;5053237;28;20218;-67
2022/09/01 01:14:10;;;;;;;2.58;1.50;;;;;;;;;;5064171;28;20222;-67
2022/09/01 01:16:36;;;;;;;3.05;1.70;;;;;;;;;;5069424;28;20315;-67
2022/09/01 01:19:01;;;;;;;3.55;1.70;;;;;;;;;;5052613;28;20309;-67
2022/09/01 01:24:28;;;;;;;4.15;1.70;;;;;;;;;;5051486;28;20312;-67
2022/09/01 01:26:56;;;;;;;4.80;1.65;;;;;;;;;;5051659;28;20273;-67
2022/09/01 01:29:22;;;;;;;3.78;1.50;;;;;;;;;;5051795;28;20215;-67
2022/09/01 01:31:50;;;;;;;2.47;1.60;;;;;;;;;;5053050;28;20345;-67
2022/09/01 01:34:16;;;;;;;8.05;1.65;;;;;;;;;;5051865;28;20212;-67
2022/09/01 01:36:41;;;;;;;2.67;1.40;;;;;;;;;;5052746;28;20293;-67
2022/09/01 01:39:09;;;;;;;4.50;1.77;;;;;;;;;;5052360;28;20215;-67
2022/09/01 01:41:35;;;;;;;4.28;1.38;;;;;;;;;;5052151;28;20215;-66
2022/09/01 01:44:03;;;;;;;4.55;1.73;;;;;;;;;;5052761;28;20230;-67
2022/09/01 01:46:28;;;;;;;6.75;1.95;;;;;;;;;;5051058;28;20694;-66
2022/09/01 01:48:54;;;;;;;2.25;1.60;;;;;;;;;;5051555;28;20203;-66
2022/09/01 01:51:20;;;;;;;4.07;1.45;;;;;;;;;;5052005;28;20231;-66
2022/09/01 01:53:46;;;;;;;4.28;1.65;;;;;;;;;;5052582;28;20847;-67
2022/09/01 01:56:11;;;;;;;2.60;1.40;;;;;;;;;;5051440;28;20207;-64
2022/09/01 01:58:39;;;;;;;4.30;1.67;;;;;;;;;;5042300;28;20801;-66
2022/09/01 02:01:05;;;;;;;4.18;1.60;;;;;;;;;;5041907;28;20221;-66
2022/09/01 02:03:35;;;;;;;3.90;1.38;;;;;;;;;;5024682;28;20270;-66
2022/09/01 02:06:07;;;;;;;5.07;1.40;;;;;;;;;;5039709;28;20211;-66
2022/09/01 02:08:33;;;;;;;4.10;1.45;;;;;;;;;;5039360;28;20219;-66
2022/09/01 02:10:59;;;;;;;4.70;1.55;;;;;;;;;;5016356;28;20223;-66
2022/09/01 02:13:27;;;;;;;4.05;1.70;;;;;;;;;;5008710;28;20212;-66
2022/09/01 02:15:53;;;;;;;3.60;1.30;;;;;;;;;;5016110;28;20223;-66
2022/09/01 02:18:20;;;;;;;4.57;1.60;;;;;;;;;;5011709;28;20844;-66
2022/09/01 02:20:46;;;;;;;4.13;1.63;;;;;;;;;;5014215;28;20234;-66
2022/09/01 02:23:14;;;;;;;4.50;1.35;;;;;;;;;;5013841;28;20204;-66
2022/09/01 02:25:42;;;;;;;3.42;1.50;;;;;;;;;;5032377;28;20226;-66
2022/09/01 02:28:14;;;;;;;3.78;1.63;;;;;;;;;;5033093;28;20314;-66
2022/09/01 02:30:40;;;;;;;4.15;1.73;;;;;;;;;;5030576;28;20803;-66
2022/09/01 02:33:07;;;;;;;2.97;1.50;;;;;;;;;;5012012;28;20277;-66
2022/09/01 02:35:36;;;;;;;2.47;1.48;;;;;;;;;;5027190;28;20215;-66
2022/09/01 02:38:02;;;;;;;2.92;1.70;;;;;;;;;;5014148;28;20776;-66
2022/09/01 02:40:29;;;;;;;6.68;1.90;;;;;;;;;;5013379;28;20208;-66
2022/09/01 02:42:55;;;;;;;3.60;1.63;;;;;;;;;;5032889;28;20425;-66
2022/09/01 02:45:20;;;;;;;3.53;1.50;;;;;;;;;;5032018;28;20610;-66
2022/09/01 02:47:47;;;;;;;5.65;1.98;;;;;;;;;;5031216;28;20254;-66
2022/09/01 02:50:15;;;;;;;4.20;1.75;;;;;;;;;;5014648;28;20216;-66
2022/09/01 02:52:41;;;;;;;2.47;1.38;;;;;;;;;;5018542;28;20247;-66
2022/09/01 02:55:07;;;;;;;4.68;1.70;;;;;;;;;;5007788;28;20440;-66
2022/09/01 02:57:34;;;;;;;4.80;1.58;;;;;;;;;;5007355;28;20212;-66
2022/09/01 02:59:59;;;;;;;4.15;1.65;;;;;;;;;;5006929;28;20227;-66
2022/09/01 03:02:27;;;;;;;4.03;1.50;;;;;;;;;;5013159;28;20208;-66
2022/09/01 03:04:54;;;;;;;3.50;1.67;;;;;;;;;;5033249;28;20624;-66
2022/09/01 03:07:22;;;;;;;7.35;1.95;;;;;;;;;;5014439;28;20607;-66
2022/09/01 03:09:47;;;;;;;3.78;1.80;;;;;;;;;;5031249;28;20214;-66
2022/09/01 03:12:13;;;;;;;5.57;1.92;;;;;;;;;;5032553;28;20803;-69
2022/09/01 03:14:38;;;;;;;3.95;1.70;;;;;;;;;;5016146;28;20222;-65
2022/09/01 03:17:04;;;;;;;5.93;1.70;;;;;;;;;;5009087;28;20371;-65
2022/09/01 03:19:33;;;;;;;4.35;1.55;;;;;;;;;;5007715;28;20246;-66
2022/09/01 03:21:59;;;;;;;4.55;1.70;;;;;;;;;;5025757;28;20447;-65
2022/09/01 03:24:24;;;;;;;3.25;1.60;;;;;;;;;;5030361;28;20721;-66
2022/09/01 03:26:49;;;;;;;3.33;1.40;;;;;;;;;;5031459;28;20227;-65
2022/09/01 03:29:14;;;;;;;4.80;1.70;;;;;;;;;;5031959;28;20264;-65
2022/09/01 03:31:41;;;;;;;2.63;1.67;;;;;;;;;;5031821;28;20276;-65
2022/09/01 03:34:09;;;;;;;4.35;1.70;;;;;;;;;;5031070;28;20214;-65
2022/09/01 03:36:35;;;;;;;4.03;1.58;;;;;;;;;;5029968;28;20203;-66
2022/09/01 03:39:00;;;;;;;4.22;2.00;;;;;;;;;;5008707;28;20297;-65
2022/09/01 03:41:27;;;;;;;2.83;1.58;;;;;;;;;;5005444;28;20218;-65
2022/09/01 03:43:53;;;;;;;3.65;1.52;;;;;;;;;;5005795;28;20535;-65
2022/09/01 03:46:21;;;;;;;3.88;1.90;;;;;;;;;;5009204;28;20273;-66
2022/09/01 03:48:48;;;;;;;5.00;1.50;;;;;;;;;;5011342;28;20262;-66
2022/09/01 03:51:13;;;;;;;5.30;1.70;;;;;;;;;;5011354;28;20407;-65
2022/09/01 03:53:39;;;;;;;3.20;1.67;;;;;;;;;;5012807;28;20517;-65
2022/09/01 03:56:04;;;;;;;2.35;1.50;;;;;;;;;;5011646;28;20572;-65
2022/09/01 03:58:30;;;;;;;4.55;1.70;;;;;;;;;;5013062;28;20667;-65
2022/09/01 04:00:57;;;;;;;2.90;1.67;;;;;;;;;;5011861;28;20215;-65
2022/09/01 04:03:23;;;;;;;4.35;1.73;;;;;;;;;;5006880;28;20218;-65
2022/09/01 04:05:49;;;;;;;3.50;1.50;;;;;;;;;;5008195;28;20223;-65
2022/09/01 04:08:15;;;;;;;2.95;1.60;;;;;;;;;;5026237;28;20231;-65
2022/09/01 04:10:46;;;;;;;2.90;1.50;;;;;;;;;;5033488;28;20230;-65
2022/09/01 04:13:12;;;;;;;5.13;1.63;;;;;;;;;;5035528;28;20231;-66
2022/09/01 04:15:38;;;;;;;3.47;1.75;;;;;;;;;;5020821;28;20319;-65
2022/09/01 04:18:07;;;;;;;2.25;1.42;;;;;;;;;;5023654;28;20218;-65
2022/09/01 04:20:38;;;;;;;4.80;1.40;;;;;;;;;;5040533;28;20731;-65
2022/09/01 04:23:09;;;;;;;3.97;1.60;;;;;;;;;;5039737;28;20223;-65
2022/09/01 04:25:37;;;;;;;3.47;1.50;;;;;;;;;;5027046;28;20476;-65
2022/09/01 04:28:11;;;;;;;4.78;1.33;;;;;;;;;;5005554;28;20609;-65
2022/09/01 04:30:39;;;;;;;4.03;1.50;;;;;;;;;;5024946;28;20207;-65
2022/09/01 04:33:05;;;;;;;5.40;1.70;;;;;;;;;;5031555;28;20756;-65
2022/09/01 04:35:31;;;;;;;5.20;1.70;;;;;;;;;;5032413;28;20207;-66
2022/09/01 04:37:57;;;;;;;4.00;1.40;;;;;;;;;;5018325;28;20410;-65
2022/09/01 04:40:22;;;;;;;4.90;1.90;;;;;;;;;;5012420;28;20250;-65
2022/09/01 04:42:48;;;;;;;1.83;1.30;;;;;;;;;;5012054;28;20216;-65
2022/09/01 04:45:14;;;;;;;7.63;1.70;;;;;;;;;;5028131;28;20230;-64
2022/09/01 04:47:41;;;;;;;2.00;1.20;;;;;;;;;;5026199;28;20223;-65
2022/09/01 04:50:12;;;;;;;4.15;1.40;;;;;;;;;;5004412;28;20462;-65
2022/09/01 04:52:37;;;;;;;5.95;1.60;;;;;;;;;;5010155;28;20448;-65
2022/09/01 04:55:03;;;;;;;2.72;1.60;;;;;;;;;;5010263;28;20208;-65
2022/09/01 04:57:30;;;;;;;3.58;1.27;;;;;;;;;;5011663;28;20259;-65
2022/09/01 04:59:55;;;;;;;3.47;1.67;;;;;;;;;;5011778;28;20223;-64
2022/09/01 05:02:25;;;;;;;6.10;1.65;;;;;;;;;;5012470;28;20204;-65
2022/09/01 05:04:53;;;;;;;3.03;1.30;;;;;;;;;;5031296;28;20223;-68
2022/09/01 05:07:20;;;;;;;4.63;1.70;;;;;;;;;;5013737;28;20834;-66
2022/09/01 05:09:45;;;;;;;4.57;1.67;;;;;;;;;;5008760;28;20827;-64
2022/09/01 05:12:11;;;;;;;3.55;1.50;;;;;;;;;;5004909;28;20211;-64
2022/09/01 05:14:38;;;;;;;3.00;1.58;;;;;;;;;;5005327;28;20429;-66
2022/09/01 05:17:09;;;;;;;6.65;1.50;;;;;;;;;;5009899;28;20214;-65
2022/09/01 05:19:36;;;;;;;3.20;1.40;;;;;;;;;;5012022;28;20224;-64
2022/09/01 05:22:02;;;;;;;5.93;1.63;;;;;;;;;;5013112;28;20199;-66
2022/09/01 05:24:29;;;;;;;2.70;1.60;;;;;;;;;;5016763;28;20737;-67
2022/09/01 05:26:54;;;;;;;2.55;1.20;;;;;;;;;;5038489;28;20219;-65
2022/09/01 05:29:19;;;;;;;5.28;1.38;;;;;;;;;;5043852;28;20210;-67
2022/09/01 05:31:45;;;;;;;3.33;1.75;;;;;;;;;;5044774;28;20298;-67
2022/09/01 05:34:11;;;;;;;3.28;1.60;;;;;;;;;;5043324;28;20257;-66
2022/09/01 05:36:38;;;;;;;3.23;1.50;;;;;;;;;;5044295;28;20482;-72
2022/09/01 05:39:04;;;;;;;2.88;1.58;;;;;;;;;;5043226;28;20431;-69
2022/09/01 05:41:29;;;;;;;4.35;1.40;;;;;;;;;;5043259;28;20215;-68
2022/09/01 05:43:55;;;;;;;4.22;1.50;;;;;;;;;;5044405;28;20281;-69
2022/09/01 05:46:22;;;;;;;4.70;1.48;;;;;;;;;;5043756;28;20235;-68
2022/09/01 05:48:48;;;;;;;5.10;1.33;;;;;;;;;;5043810;28;20207;-68
2022/09/01 05:51:16;;;;;;;2.80;1.50;;;;;;;;;;5046913;28;20207;-68
2022/09/01 05:53:42;;;;;;;3.10;1.27;;;;;;;;;;5043047;28;20572;-67
2022/09/01 05:56:08;;;;;;;2.88;1.42;;;;;;;;;;5043148;28;20677;-68
2022/09/01 05:58:34;;;;;;;5.20;1.60;;;;;;;;;;5044207;28;20411;-69
2022/09/01 06:01:00;;;;;;;4.25;1.42;;;;;;;;;;5043758;28;20217;-65
2022/09/01 06:03:26;;;;;;;3.67;1.60;;;;;;;;;;5041319;28;20416;-63
2022/09/01 06:05:52;;;;;;;5.32;1.42;;;;;;;;;;5044365;28;20286;-64
2022/09/01 06:08:18;;;;;;;3.13;1.48;;;;;;;;;;5043840;28;20292;-64
2022/09/01 06:10:44;;;;;;;2.72;1.50;;;;;;;;;;5043104;28;20210;-62
2022/09/01 06:13:10;;;;;;;4.75;1.48;;;;;;;;;;5048825;28;20236;-63
2022/09/01 06:15:37;;;;;;;3.15;1.35;;;;;;;;;;5063421;28;20730;-62
2022/09/01 06:18:05;;;;;;;5.22;1.55;;;;;;;;;;5040975;28;20207;-62
2022/09/01 06:20:31;;;;;;;3.03;1.40;;;;;;;;;;5044393;28;20210;-62
2022/09/01 06:22:56;;;;;;;4.82;1.60;;;;;;;;;;5043647;28;20203;-61
2022/09/01 06:25:22;;;;;;;7.28;1.50;;;;;;;;;;5043400;28;20557;-60
2022/09/01 06:27:48;;;;;;;3.55;1.40;;;;;;;;;;5046677;28;20237;-62
2022/09/01 06:30:19;;;;;;;3.15;1.10;;;;;;;;;;5042268;28;20207;-63
2022/09/01 06:32:45;;;;;;;4.85;1.63;;;;;;;;;;5023721;28;20499;-66
2022/09/01 06:35:10;;;;;;;3.50;1.60;;;;;;;;;;5039525;28;20487;-67
2022/09/01 06:37:37;;;;;;;4.00;1.58;;;;;;;;;;5043018;28;20871;-65
2022/09/01 06:40:02;;;;;;;3.88;1.30;;;;;;;;;;5043236;28;20319;-65
2022/09/01 06:42:28;;;;;;;6.43;1.30;;;;;;;;;;5043488;28;20753;-65
2022/09/01 06:44:53;;;;;;;3.22;1.50;;;;;;;;;;5043170;28;20311;-65
2022/09/01 06:47:18;;;;;;;7.65;1.50;;;;;;;;;;5043064;28;20230;-65
2022/09/01 06:49:44;;;;;;;7.82;1.30;;;;;;;;;;5043679;28;20709;-65
2022/09/01 06:52:10;;;;;;;2.85;1.33;;;;;;;;;;5054646;28;20279;-65
2022/09/01 06:54:38;;;;;;;4.35;1.42;;;;;;;;;;5063160;28;20233;-69
2022/09/01 06:57:03;;;;;;;4.13;1.38;;;;;;;;;;5063101;28;20246;-65
2022/09/01 06:59:34;;;;;;;5.88;1.65;;;;;;;;;;5063081;28;20214;-65
2022/09/01 07:02:00;;;;;;;3.22;1.02;;;;;;;;;;5062956;28;20225;-65
2022/09/01 07:04:28;;;;;;;5.05;1.40;;;;;;;;;;5063070;28;20210;-65
2022/09/01 07:06:54;;;;;;;4.72;1.27;;;;;;;;;;5062480;28;20280;-65
2022/09/01 07:09:19;;;;;;;6.03;1.13;;;;;;;;;;5063097;28;20422;-65
2022/09/01 07:11:45;;;;;;;2.47;1.20;;;;;;;;;;5060356;28;20478;-65
2022/09/01 07:14:14;;;;;;;5.15;1.40;;;;;;;;;;5049815;28;20230;-64
2022/09/01 07:16:40;;;;;;;3.80;1.27;;;;;;;;;;5043520;28;20199;-65
2022/09/01 07:19:07;;;;;;;3.35;1.27;;;;;;;;;;5040855;28;20215;-65
2022/09/01 07:21:33;;;;;;;4.70;1.23;;;;;;;;;;5041838;28;20818;-64
2022/09/01 07:24:00;;;;;;;3.53;1.30;;;;;;;;;;5043510;28;20327;-65
2022/09/01 07:26:26;;;;;;;6.47;1.55;;;;;;;;;;5040249;28;20211;-65
2022/09/01 07:28:51;;;;;;;6.40;1.33;;;;;;;;;;5040303;28;20217;-65
2022/09/01 07:31:20;;;;;;;2.63;1.30;;;;;;;;;;5042154;28;20277;-65
2022/09/01 07:33:47;;;;;;;6.82;1.70;;;;;;;;;;5042246;28;20214;-65
2022/09/01 07:36:13;;;;;;;5.70;1.77;;;;;;;;;;5038735;28;20690;-65
2022/09/01 07:38:39;;;;;;;3.95;1.45;;;;;;;;;;5041094;28;20217;-65
2022/09/01 07:41:04;;;;;;;6.75;1.50;;;;;;;;;;5038913;28;20650;-67
2022/09/01 07:43:31;;;;;;;3.42;1.35;;;;;;;;;;5039184;28;20294;-65
2022/09/01 07:45:58;;;;;;;4.05;1.30;;;;;;;;;;5041804;28;20231;-65
2022/09/01 07:48:24;;;;;;;6.45;1.40;;;;;;;;;;5040955;28;20230;-65
2022/09/01 07:50:51;;;;;;;4.00;1.30;;;;;;;;;;5039873;28;20833;-65
2022/09/01 07:53:17;;;;;;;3.05;1.40;;;;;;;;;;5061033;28;20529;-65
2022/09/01 07:55:44;;;;;;;5.15;1.52;;;;;;;;;;5060278;28;20298;-65
2022/09/01 07:58:10;;;;;;;3.92;1.40;;;;;;;;;;5059347;28;20242;-65
2022/09/01 08:00:36;;;;;;;5.97;1.90;;;;;;;;;;5057510;28;20484;-65
2022/09/01 08:03:01;;;;;;;4.78;1.30;;;;;;;;;;5041596;28;20211;-65
2022/09/01 08:05:27;;;;;;;2.60;1.35;;;;;;;;;;5042556;28;20891;-66
2022/09/01 08:07:53;;;;;;;2.90;1.10;;;;;;;;;;5042120;28;20223;-66
2022/09/01 08:10:18;;;;;;;4.28;1.30;;;;;;;;;;5040845;28;20305;-65
2022/09/01 08:12:43;;;;;;;9.73;1.52;;;;;;;;;;5042028;28;20853;-66
2022/09/01 08:15:11;;;;;;;4.80;1.30;;;;;;;;;;5061481;28;20202;-65
2022/09/01 08:17:36;;;;;;;5.05;1.05;;;;;;;;;;5050212;28;20219;-66
2022/09/01 08:20:01;;;;;;;3.95;1.30;;;;;;;;;;5042374;28;20771;-66
2022/09/01 08:22:27;;;;;;;5.65;1.15;;;;;;;;;;5042615;28;20215;-65
2022/09/01 08:24:52;;;;;;;7.07;1.10;;;;;;;;;;5042970;28;20296;-65
2022/09/01 08:27:17;;;;;;;5.80;1.30;;;;;;;;;;5042528;28;20241;-65
2022/09/01 08:29:43;;;;;;;3.28;1.20;;;;;;;;;;5041730;28;20215;-65
2022/09/01 08:32:10;;;;;;;3.83;1.00;;;;;;;;;;5040540;28;20618;-65
2022/09/01 08:34:36;;;;;;;2.90;1.17;;;;;;;;;;5041877;28;20211;-66
2022/09/01 08:37:01;;;;;;;6.70;1.00;;;;;;;;;;5041324;28;20210;-66
2022/09/01 08:39:26;;;;;;;4.70;1.20;;;;;;;;;;5059091;28;20215;-65
2022/09/01 08:41:57;;;;;;;5.40;1.30;;;;;;;;;;5062530;28;20202;-66
2022/09/01 08:44:30;;;;;;;5.93;1.27;;;;;;;;;;5059803;28;20234;-66
2022/09/01 08:46:58;;;;;;;2.95;1.05;;;;;;;;;;5061822;28;20227;-66
2022/09/01 08:49:24;;;;;;;3.40;1.10;;;;;;;;;;5060126;28;20562;-65
2022/09/01 08:51:51;;;;;;;4.25;1.20;;;;;;;;;;5051282;28;20226;-66
2022/09/01 08:54:16;;;;;;;4.15;0.80;;;;;;;;;;5039846;28;20211;-66
2022/09/01 08:56:42;;;;;;;2.85;0.95;;;;;;;;;;5044913;28;20783;-66
2022/09/01 08:59:09;;;;;;;3.17;0.90;;;;;;;;;;5044317;28;20221;-66
2022/09/01 09:01:37;;;;;;;6.93;1.05;;;;;;;;;;5046360;28;20242;-66
2022/09/01 09:04:07;;;;;;;3.90;1.10;;;;;;;;;;5044947;28;20211;-66
2022/09/01 09:06:35;;;;;;;3.13;0.88;;;;;;;;;;5043159;28;20281;-66
2022/09/01 09:09:07;;;;;;;1.95;0.80;;;;;;;;;;5043785;28;20690;-66
2022/09/01 09:11:39;;;;;;;2.22;0.70;;;;;;;;;;5043431;28;20226;-66
2022/09/01 09:14:10;;;;;;;3.90;1.20;;;;;;;;;;5056874;28;20219;-66
2022/09/01 09:16:36;;;;;;;3.65;0.98;;;;;;;;;;5061952;28;20215;-66
2022/09/01 09:19:04;;;;;;;5.47;1.17;;;;;;;;;;5044299;28;20204;-66
2022/09/01 09:21:36;;;;;;;2.85;0.80;;;;;;;;;;5043263;28;20207;-66
2022/09/01 09:24:07;;;;;;;1.98;0.90;;;;;;;;;;5044615;28;20218;-66
2022/09/01 09:26:33;;;;;;;4.32;0.90;;;;;;;;;;5043554;28;20251;-66
2022/09/01 09:28:58;;;;;;;2.22;0.60;;;;;;;;;;5045439;28;20297;-66
2022/09/01 09:31:34;;;;;;;4.97;0.73;;;;;;;;;;5044711;28;20211;-66
2022/09/01 09:33:59;;;;;;;2.97;0.68;;;;;;;;;;5044791;28;20218;-66
2022/09/01 09:36:29;;;;;;;4.50;0.70;;;;;;;;;;5043395;28;20547;-67
2022/09/01 09:39:06;;;;;;;2.53;0.80;;;;;;;;;;5057353;28;20609;-66
2022/09/01 09:41:32;;;;;;;3.35;0.80;;;;;;;;;;5063081;28;20691;-66
2022/09/01 09:43:58;;;;;;;1.23;0.70;;;;;;;;;;5063809;28;20206;-66
2022/09/01 09:46:31;;;;;;;3.03;0.63;;;;;;;;;;5063673;28;20531;-66
2022/09/01 09:49:15;;;;;;;1.90;0.68;;;;;;;;;;5064689;28;20218;-66
2022/09/01 09:51:41;;;;;;;2.60;0.70;;;;;;;;;;5057108;28;20682;-66
2022/09/01 09:54:18;;;;;;;2.90;0.70;;;;;;;;;;5041937;28;20215;-66
2022/09/01 09:56:43;;;;;;;0.85;0.60;;;;;;;;;;5045206;28;20207;-66
2022/09/01 09:59:20;;;;;;;2.65;0.85;;;;;;;;;;5042732;28;20330;-66
2022/09/01 10:01:48;;;;;;;1.77;0.50;;;;;;;;;;5044176;28;20324;-66
2022/09/01 10:04:13;;;;;;;2.28;0.80;;;;;;;;;;5044173;28;20238;-67
2022/09/01 10:06:40;;;;;;;2.78;0.80;;;;;;;;;;5043208;28;20643;-66
2022/09/01 10:09:07;;;;;;;6.05;0.60;;;;;;;;;;5042416;28;20215;-66
2022/09/01 10:11:36;;;;;;;1.20;0.60;;;;;;;;;;5044977;28;20211;-66
2022/09/01 10:14:03;;;;;;;2.88;0.88;;;;;;;;;;5053875;28;20214;-66
2022/09/01 10:16:29;;;;;;;3.67;0.85;;;;;;;;;;5061160;28;20526;-66
2022/09/01 10:18:59;;;;;;;2.10;0.65;;;;;;;;;;5044543;28;20214;-66
2022/09/01 10:21:28;;;;;;;2.17;0.70;;;;;;;;;;5046773;28;20273;-66
2022/09/01 10:23:53;;;;;;;1.02;0.50;;;;;;;;;;5051458;28;20294;-66
2022/09/01 10:26:32;;;;;;;1.10;0.73;;;;;;;;;;5051455;28;20306;-66
2022/09/01 10:28:59;;;;;;;2.35;0.70;;;;;;;;;;5050036;28;20284;-66
2022/09/01 10:31:25;;;;;;;4.18;0.90;;;;;;;;;;5051250;28;20227;-66
2022/09/01 10:33:50;;;;;;;2.17;0.60;;;;;;;;;;5050529;28;20292;-66
2022/09/01 10:36:15;;;;;;;2.38;1.00;;;;;;;;;;5050600;28;20211;-67
2022/09/01 10:38:41;;;;;;;1.98;0.68;;;;;;;;;;5061598;28;20222;-67
2022/09/01 10:41:06;;;;;;;2.47;0.60;;;;;;;;;;5069793;28;20210;-67
2022/09/01 10:43:34;;;;;;;3.47;0.90;;;;;;;;;;5071139;28;20211;-67
2022/09/01 10:46:00;;;;;;;3.20;0.80;;;;;;;;;;5071202;28;20237;-67
2022/09/01 10:48:28;;;;;;;3.97;0.82;;;;;;;;;;5069627;28;20231;-67
2022/09/01 10:51:13;;;;;;;2.17;0.90;;;;;;;;;;5068404;28;20211;-67
2022/09/01 10:53:39;;;;;;;4.65;0.80;;;;;;;;;;5051141;28;20269;-67
2022/09/01 10:56:10;;;;;;;2.83;0.70;;;;;;;;;;5050905;28;20214;-67
2022/09/01 10:58:39;;;;;;;2.42;0.70;;;;;;;;;;5050614;28;20210;-67
2022/09/01 11:01:04;;;;;;;1.13;0.60;;;;;;;;;;5049696;28;20214;-66
2022/09/01 11:03:31;;;;;;;4.38;0.70;;;;;;;;;;5051165;28;20567;-67
2022/09/01 11:05:57;;;;;;;2.70;0.55;;;;;;;;;;5050364;28;20266;-67
2022/09/01 11:08:40;;;;;;;3.95;0.70;;;;;;;;;;5050579;28;20227;-67
2022/09/01 11:11:08;;;;;;;1.95;0.77;;;;;;;;;;5050100;28;20297;-67
2022/09/01 11:13:41;;;;;;;1.80;0.70;;;;;;;;;;5057441;28;20591;-66
2022/09/01 11:16:22;;;;;;;2.92;0.60;;;;;;;;;;5069132;28;20669;-67
2022/09/01 11:18:50;;;;;;;1.25;0.70;;;;;;;;;;5030451;28;20277;-66
2022/09/01 11:21:16;;;;;;;2.20;0.90;;;;;;;;;;5030571;28;20303;-70
2022/09/01 11:23:42;;;;;;;2.15;0.80;;;;;;;;;;5036882;28;20215;-67
2022/09/01 11:26:26;;;;;;;2.88;0.80;;;;;;;;;;5040928;28;20631;-68
2022/09/01 11:28:51;;;;;;;1.60;0.70;;;;;;;;;;5042995;28;20227;-68
2022/09/01 11:31:17;;;;;;;6.85;1.30;;;;;;;;;;5042315;28;20566;-67
2022/09/01 11:33:46;;;;;;;4.60;1.20;;;;;;;;;;5041556;28;20221;-67
2022/09/01 11:36:18;;;;;;;2.15;0.70;;;;;;;;;;5035327;28;20694;-68
2022/09/01 11:38:47;;;;;;;3.00;0.70;;;;;;;;;;5053932;28;20644;-67
2022/09/01 11:41:32;;;;;;;3.15;0.65;;;;;;;;;;5061520;28;20218;-67
2022/09/01 11:43:58;;;;;;;3.70;0.90;;;;;;;;;;5062633;28;20210;-67
2022/09/01 11:46:25;;;;;;;2.92;0.80;;;;;;;;;;5049932;28;20569;-67
2022/09/01 11:48:52;;;;;;;1.40;0.77;;;;;;;;;;5040889;28;20917;-68
2022/09/01 11:51:17;;;;;;;5.28;0.80;;;;;;;;;;5045995;28;20281;-68
2022/09/01 11:53:42;;;;;;;2.40;0.98;;;;;;;;;;5061812;28;20221;-68
2022/09/01 11:56:12;;;;;;;3.80;0.80;;;;;;;;;;5061988;28;20695;-68
2022/09/01 11:58:37;;;;;;;4.63;0.70;;;;;;;;;;5062281;28;20685;-68
2022/09/01 12:01:11;;;;;;;4.80;1.02;;;;;;;;;;5059824;28;20317;-67
2022/09/01 12:03:37;;;;;;;3.92;0.70;;;;;;;;;;5062415;28;20234;-68
2022/09/01 12:06:03;;;;;;;2.95;0.90;;;;;;;;;;5062246;28;20260;-68
2022/09/01 12:08:33;;;;;;;4.30;0.80;;;;;;;;;;5061379;28;20281;-68
2022/09/01 12:11:02;;;;;;;1.83;0.90;;;;;;;;;;5060993;28;20272;-68
2022/09/01 12:13:28;;;;;;;3.10;1.00;;;;;;;;;;5055427;28;20721;-68
2022/09/01 12:15:57;;;;;;;1.98;0.80;;;;;;;;;;5041691;28;20751;-68
2022/09/01 12:18:26;;;;;;;5.60;0.80;;;;;;;;;;5041778;28;20700;-68
2022/09/01 12:20:52;;;;;;;3.05;0.70;;;;;;;;;;5042352;28;20211;-68
2022/09/01 12:23:23;;;;;;;2.45;1.15;;;;;;;;;;5040777;28;20234;-67
2022/09/01 12:25:48;;;;;;;4.57;0.95;;;;;;;;;;5042390;28;20203;-68
2022/09/01 12:28:13;;;;;;;1.92;0.70;;;;;;;;;;5040941;28;20598;-68
2022/09/01 12:30:39;;;;;;;1.95;0.80;;;;;;;;;;5043114;28;20747;-68
2022/09/01 12:33:05;;;;;;;1.70;0.80;;;;;;;;;;5044506;28;20426;-66
2022/09/01 12:35:30;;;;;;;4.25;0.80;;;;;;;;;;5044293;28;20211;-67
2022/09/01 12:38:14;;;;;;;4.07;0.80;;;;;;;;;;5044294;28;20410;-66
2022/09/01 12:40:40;;;;;;;3.00;0.60;;;;;;;;;;5046136;28;20298;-67
2022/09/01 12:43:05;;;;;;;2.60;0.85;;;;;;;;;;5043903;28;20762;-67
2022/09/01 12:45:41;;;;;;;2.78;0.70;;;;;;;;;;5045851;28;20229;-67
2022/09/01 12:48:22;;;;;;;1.67;0.73;;;;;;;;;;5045569;28;20223;-67
2022/09/01 12:50:49;;;;;;;1.48;0.70;;;;;;;;;;5045027;28;20233;-66
2022/09/01 12:53:15;;;;;;;1.40;0.63;;;;;;;;;;5065319;28;20213;-67
2022/09/01 12:55:40;;;;;;;3.10;0.63;;;;;;;;;;5051716;28;20219;-67
2022/09/01 12:58:06;;;;;;;3.88;0.85;;;;;;;;;;5043140;28;20231;-67
2022/09/01 13:00:32;;;;;;;2.80;0.75;;;;;;;;;;5044946;28;20568;-67
2022/09/01 13:03:02;;;;;;;4.45;0.73;;;;;;;;;;5022491;28;20215;-67
2022/09/01 13:05:29;;;;;;;2.30;0.80;;;;;;;;;;5024119;28;20250;-67
2022/09/01 13:07:55;;;;;;;1.90;0.63;;;;;;;;;;5022002;28;20242;-67
2022/09/01 13:10:22;;;;;;;4.60;0.80;;;;;;;;;;5018576;28;23017;-67
2022/09/01 13:12:47;;;;;;;3.58;0.68;;;;;;;;;;5021309;28;20212;-67
2022/09/01 13:15:13;;;;;;;3.72;0.73;;;;;;;;;;5020614;28;20538;-67
2022/09/01 13:17:38;;;;;;;4.88;0.75;;;;;;;;;;5027134;28;20711;-67
2022/09/01 13:20:05;;;;;;;2.78;0.70;;;;;;;;;;5025461;28;20325;-67
2022/09/01 13:22:30;;;;;;;2.00;0.50;;;;;;;;;;5039663;28;20392;-67
2022/09/01 13:24:55;;;;;;;2.60;0.90;;;;;;;;;;5038170;28;20219;-66
2022/09/01 13:27:22;;;;;;;3.83;0.70;;;;;;;;;;5032561;28;20876;-67
2022/09/01 13:29:47;;;;;;;4.03;0.70;;;;;;;;;;5033511;28;20250;-67
2022/09/01 13:32:13;;;;;;;2.55;0.70;;;;;;;;;;5033894;28;20686;-67
2022/09/01 13:34:39;;;;;;;2.67;0.88;;;;;;;;;;5039378;28;20729;-67
2022/09/01 13:37:05;;;;;;;2.70;0.90;;;;;;;;;;5038631;28;20663;-67
2022/09/01 13:39:30;;;;;;;4.03;0.90;;;;;;;;;;5020998;28;20531;-67
2022/09/01 13:41:55;;;;;;;2.28;0.70;;;;;;;;;;5018865;28;20307;-67
2022/09/01 13:44:21;;;;;;;3.38;0.90;;;;;;;;;;5019631;28;20587;-67
2022/09/01 13:46:46;;;;;;;3.63;0.85;;;;;;;;;;5018834;28;20746;-66
2022/09/01 13:49:11;;;;;;;3.58;1.20;;;;;;;;;;5014358;28;20216;-67
2022/09/01 13:51:37;;;;;;;2.97;0.88;;;;;;;;;;5032074;28;20556;-67
2022/09/01 13:54:03;;;;;;;2.67;0.80;;;;;;;;;;5032713;28;20227;-67
2022/09/01 13:56:28;;;;;;;1.50;0.50;;;;;;;;;;5017970;28;20215;-67
2022/09/01 13:58:54;;;;;;;4.72;0.82;;;;;;;;;;5018679;28;20899;-67
2022/09/01 14:01:20;;;;;;;4.38;0.98;;;;;;;;;;5036665;28;20513;-67
2022/09/01 14:03:47;;;;;;;5.20;0.85;;;;;;;;;;5039082;28;20207;-67
2022/09/01 14:06:12;;;;;;;5.80;0.80;;;;;;;;;;5038113;28;20225;-67
2022/09/01 14:08:38;;;;;;;4.55;0.70;;;;;;;;;;5038224;28;20227;-67
2022/09/01 14:11:03;;;;;;;4.32;0.90;;;;;;;;;;5035643;28;20207;-67
2022/09/01 14:13:30;;;;;;;3.45;1.00;;;;;;;;;;5025977;28;20212;-67
2022/09/01 14:15:55;;;;;;;4.53;1.00;;;;;;;;;;5012510;28;20504;-67
2022/09/01 14:18:20;;;;;;;3.67;0.90;;;;;;;;;;5016006;28;20457;-67
2022/09/01 14:20:46;;;;;;;3.50;0.70;;;;;;;;;;5016897;28;20758;-65
2022/09/01 14:23:12;;;;;;;4.22;0.70;;;;;;;;;;5036573;28;20219;-67
2022/09/01 14:25:41;;;;;;;3.17;0.95;;;;;;;;;;5018350;28;20297;-67
2022/09/01 14:28:06;;;;;;;2.30;1.02;;;;;;;;;;5036537;28;20239;-67
2022/09/01 14:30:31;;;;;;;3.33;0.88;;;;;;;;;;5038362;28;20210;-66
2022/09/01 14:32:58;;;;;;;4.32;0.70;;;;;;;;;;5018331;28;20220;-67
2022/09/01 14:35:24;;;;;;;2.40;0.65;;;;;;;;;;5015079;28;20230;-67
2022/09/01 14:37:50;;;;;;;1.75;0.88;;;;;;;;;;5037323;28;20257;-67
2022/09/01 14:40:15;;;;;;;2.28;0.85;;;;;;;;;;5042996;28;20215;-66
2022/09/01 14:42:42;;;;;;;3.75;0.95;;;;;;;;;;5042561;28;20222;-66
2022/09/01 14:45:10;;;;;;;1.85;0.70;;;;;;;;;;5040172;28;21092;-66